createdAt,value
2018-07-23T00:01:45.000Z,33.2
2018-07-23T00:02:45.000Z,33.2
2018-07-23T00:04:45.000Z,33.3
2018-07-23T00:06:45.000Z,33.3
2018-07-23T00:08:45.000Z,33.3
2018-07-23T00:10:45.000Z,33.2
2018-07-23T00:11:45.000Z,33.2
2018-07-23T00:13:45.000Z,33.3
2018-07-23T00:15:45.000Z,33.3
2018-07-23T00:16:45.000Z,33.4
2018-07-23T00:18:45.000Z,33.4
2018-07-23T00:20:45.000Z,33.3
2018-07-23T00:21:45.000Z,33.3
2018-07-23T00:22:45.000Z,33.3
2018-07-23T00:23:45.000Z,33.4
2018-07-23T00:25:45.000Z,33.5
2018-07-23T00:27:30.000Z,33.5
2018-07-23T00:28:45.000Z,33.4
2018-07-23T00:30:30.000Z,33.4
2018-07-23T00:31:45.000Z,33.4
2018-07-23T00:32:45.000Z,33.4
2018-07-23T00:34:45.000Z,33.4
2018-07-23T00:36:45.000Z,33.3
2018-07-23T00:38:45.000Z,33.3
2018-07-23T00:40:45.000Z,33.3
2018-07-23T00:42:30.000Z,33.3
2018-07-23T00:43:45.000Z,33.3
2018-07-23T00:45:45.000Z,33.3
2018-07-23T00:47:45.000Z,33.3
2018-07-23T00:49:45.000Z,33.3
2018-07-23T00:51:45.000Z,33.3
2018-07-23T00:53:45.000Z,33.3
2018-07-23T00:55:45.000Z,33.3
2018-07-23T00:56:45.000Z,33.3
2018-07-23T00:58:45.000Z,33.3
2018-07-23T00:59:45.000Z,33.3
2018-07-23T01:01:45.000Z,33.3
2018-07-23T01:03:45.000Z,33.3
2018-07-23T01:05:30.000Z,33.3
2018-07-23T01:06:45.000Z,33.2
2018-07-23T01:07:45.000Z,33.3
2018-07-23T01:09:45.000Z,33.3
2018-07-23T01:10:45.000Z,33.3
2018-07-23T01:11:45.000Z,33.4
2018-07-23T01:13:45.000Z,33.5
2018-07-23T01:14:45.000Z,33.5
2018-07-23T01:16:45.000Z,33.5
2018-07-23T01:17:45.000Z,33.5
2018-07-23T01:19:45.000Z,33.5
2018-07-23T01:21:45.000Z,33.4
2018-07-23T01:23:45.000Z,33.3
2018-07-23T01:25:45.000Z,33.2
2018-07-23T01:26:45.000Z,33.2
2018-07-23T01:27:45.000Z,33.2
2018-07-23T01:29:45.000Z,33.3
2018-07-23T01:31:30.000Z,33.3
2018-07-23T01:32:45.000Z,33.3
2018-07-23T01:33:45.000Z,33.3
2018-07-23T01:35:45.000Z,33.3
2018-07-23T01:36:45.000Z,33.4
2018-07-23T01:38:45.000Z,33.4
2018-07-23T01:39:45.000Z,33.4
2018-07-23T01:40:45.000Z,33.4
2018-07-23T01:42:45.000Z,33.5
2018-07-23T01:43:45.000Z,33.5
2018-07-23T01:44:45.000Z,33.5
2018-07-23T01:46:45.000Z,33.5
2018-07-23T01:47:45.000Z,33.5
2018-07-23T01:48:45.000Z,33.5
2018-07-23T01:50:45.000Z,33.5
2018-07-23T01:51:45.000Z,33.5
2018-07-23T01:52:45.000Z,33.5
2018-07-23T01:54:45.000Z,33.5
2018-07-23T01:55:45.000Z,33.5
2018-07-23T01:56:45.000Z,33.5
2018-07-23T01:57:45.000Z,33.5
2018-07-23T01:59:45.000Z,33.5
2018-07-23T02:01:45.000Z,33.4
2018-07-23T02:03:45.000Z,33.3
2018-07-23T02:05:45.000Z,33.3
2018-07-23T02:06:45.000Z,33.3
2018-07-23T02:08:30.000Z,33.3
2018-07-23T02:09:45.000Z,33.3
2018-07-23T02:11:45.000Z,33.2
2018-07-23T02:12:45.000Z,33.2
2018-07-23T02:14:45.000Z,33.1
2018-07-23T02:16:45.000Z,33.1
2018-07-23T02:17:45.000Z,33.1
2018-07-23T02:19:45.000Z,33.2
2018-07-23T02:21:45.000Z,33.1
2018-07-23T02:23:45.000Z,33.1
2018-07-23T02:25:45.000Z,33
2018-07-23T02:27:45.000Z,33.1
2018-07-23T02:28:45.000Z,33.1
2018-07-23T02:29:45.000Z,33.1
2018-07-23T02:30:45.000Z,33.2
2018-07-23T02:32:30.000Z,33
2018-07-23T02:33:45.000Z,33.2
2018-07-23T02:35:45.000Z,33.2
2018-07-23T02:37:45.000Z,33.1
2018-07-23T02:39:30.000Z,33.1
2018-07-23T02:40:45.000Z,33
2018-07-23T02:41:45.000Z,33
2018-07-23T02:42:45.000Z,33.1
2018-07-23T02:44:45.000Z,33.1
2018-07-23T02:46:45.000Z,33.1
2018-07-23T02:47:45.000Z,33.1
2018-07-23T02:48:45.000Z,33.1
2018-07-23T02:50:30.000Z,33.2
2018-07-23T02:51:45.000Z,33.2
2018-07-23T02:52:45.000Z,33.2
2018-07-23T02:54:45.000Z,33.2
2018-07-23T02:56:45.000Z,33.1
2018-07-23T02:58:45.000Z,33
2018-07-23T03:00:45.000Z,33
2018-07-23T03:02:45.000Z,32.9
2018-07-23T03:04:45.000Z,32.9
2018-07-23T03:06:45.000Z,32.9
2018-07-23T03:08:45.000Z,32.9
2018-07-23T03:09:45.000Z,33
2018-07-23T03:10:45.000Z,33
2018-07-23T03:12:45.000Z,33.1
2018-07-23T03:13:45.000Z,33.1
2018-07-23T03:15:30.000Z,33.2
2018-07-23T03:16:45.000Z,33.1
2018-07-23T03:18:30.000Z,33.2
2018-07-23T03:19:45.000Z,33.1
2018-07-23T03:20:45.000Z,33.1
2018-07-23T03:22:45.000Z,33.2
2018-07-23T03:24:45.000Z,33.1
2018-07-23T03:25:45.000Z,33.1
2018-07-23T03:27:45.000Z,33.1
2018-07-23T03:28:45.000Z,33.1
2018-07-23T03:29:45.000Z,33.2
2018-07-23T03:31:45.000Z,33.1
2018-07-23T03:33:30.000Z,33.1
2018-07-23T03:34:45.000Z,33
2018-07-23T03:36:45.000Z,33
2018-07-23T03:37:45.000Z,33.1
2018-07-23T03:38:45.000Z,33.1
2018-07-23T03:39:45.000Z,33.1
2018-07-23T03:41:45.000Z,33.2
2018-07-23T03:42:45.000Z,33.2
2018-07-23T03:44:30.000Z,33.2
2018-07-23T03:45:45.000Z,33.2
2018-07-23T03:46:45.000Z,33.2
2018-07-23T03:47:45.000Z,33.2
2018-07-23T03:49:30.000Z,33.3
2018-07-23T03:50:45.000Z,33.2
2018-07-23T03:52:45.000Z,33.2
2018-07-23T03:54:45.000Z,33.2
2018-07-23T03:55:45.000Z,33.2
2018-07-23T03:57:45.000Z,33.2
2018-07-23T03:58:45.000Z,33.2
2018-07-23T03:59:45.000Z,33.3
2018-07-23T04:01:45.000Z,33.3
2018-07-23T04:03:45.000Z,33.3
2018-07-23T04:04:45.000Z,33.2
2018-07-23T04:06:45.000Z,33.2
2018-07-23T04:07:45.000Z,33.2
2018-07-23T04:09:45.000Z,33.2
2018-07-23T04:10:45.000Z,33.2
2018-07-23T04:12:30.000Z,33.2
2018-07-23T04:13:45.000Z,33.2
2018-07-23T04:14:45.000Z,33.3
2018-07-23T04:16:45.000Z,33.3
2018-07-23T04:17:45.000Z,33.3
2018-07-23T04:19:45.000Z,33.3
2018-07-23T04:20:45.000Z,33.3
2018-07-23T04:22:45.000Z,33.4
2018-07-23T04:24:45.000Z,33.4
2018-07-23T04:25:45.000Z,33.4
2018-07-23T04:26:45.000Z,33.1
2018-07-23T04:28:45.000Z,32.3
2018-07-23T04:30:45.000Z,31.5
2018-07-23T04:32:45.000Z,30.7
2018-07-23T04:34:29.000Z,30.2
2018-07-23T04:35:45.000Z,29.9
2018-07-23T04:37:45.000Z,29.3
2018-07-23T04:38:45.000Z,29
2018-07-23T04:39:45.000Z,28.8
2018-07-23T04:40:45.000Z,28.7
2018-07-23T04:42:45.000Z,28.6
2018-07-23T04:43:45.000Z,28.5
2018-07-23T04:45:45.000Z,28.5
2018-07-23T04:46:45.000Z,28.4
2018-07-23T04:48:45.000Z,28.2
2018-07-23T04:50:45.000Z,28.2
2018-07-23T04:51:45.000Z,28.3
2018-07-23T04:53:45.000Z,28.4
2018-07-23T04:55:29.000Z,28.6
2018-07-23T04:56:45.000Z,28.6
2018-07-23T04:58:45.000Z,28.5
2018-07-23T05:00:45.000Z,28.4
2018-07-23T05:02:45.000Z,28.2
2018-07-23T05:03:45.000Z,28.1
2018-07-23T05:05:45.000Z,28
2018-07-23T05:06:45.000Z,27.9
2018-07-23T05:07:45.000Z,27.8
2018-07-23T05:09:45.000Z,27.6
2018-07-23T05:11:45.000Z,27.2
2018-07-23T05:12:45.000Z,27.2
2018-07-23T05:14:45.000Z,27.1
2018-07-23T05:15:45.000Z,27.1
2018-07-23T05:17:29.000Z,27.5
2018-07-23T05:18:45.000Z,27.8
2018-07-23T05:20:45.000Z,28
2018-07-23T05:21:45.000Z,28.2
2018-07-23T05:23:45.000Z,28.5
2018-07-23T05:24:45.000Z,28.5
2018-07-23T05:26:45.000Z,28.6
2018-07-23T05:27:45.000Z,28.6
2018-07-23T05:29:45.000Z,28.6
2018-07-23T05:31:45.000Z,28.5
2018-07-23T05:32:45.000Z,28.5
2018-07-23T05:33:45.000Z,28.6
2018-07-23T05:35:45.000Z,28.7
2018-07-23T05:36:45.000Z,28.9
2018-07-23T05:38:45.000Z,29
2018-07-23T05:39:45.000Z,29.1
2018-07-23T05:41:45.000Z,29.1
2018-07-23T05:42:45.000Z,29
2018-07-23T05:44:45.000Z,28.7
2018-07-23T05:46:45.000Z,28.7
2018-07-23T05:47:45.000Z,28.7
2018-07-23T05:48:45.000Z,28.7
2018-07-23T05:50:45.000Z,28.7
2018-07-23T05:52:45.000Z,28.7
2018-07-23T05:53:45.000Z,28.6
2018-07-23T05:55:30.000Z,28.6
2018-07-23T05:56:45.000Z,28.7
2018-07-23T05:57:45.000Z,28.8
2018-07-23T05:59:45.000Z,28.7
2018-07-23T06:00:45.000Z,28.5
2018-07-23T06:02:45.000Z,28.5
2018-07-23T06:03:45.000Z,28.5
2018-07-23T06:04:45.000Z,28.6
2018-07-23T06:06:45.000Z,28.9
2018-07-23T06:07:45.000Z,29.1
2018-07-23T06:09:45.000Z,29.4
2018-07-23T06:11:45.000Z,29.6
2018-07-23T06:12:45.000Z,29.4
2018-07-23T06:13:45.000Z,29.2
2018-07-23T06:15:45.000Z,28.8
2018-07-23T06:17:30.000Z,28.2
2018-07-23T06:18:45.000Z,27.9
2018-07-23T06:20:45.000Z,27.7
2018-07-23T06:22:45.000Z,27.5
2018-07-23T06:23:45.000Z,27.5
2018-07-23T06:25:45.000Z,27.4
2018-07-23T06:27:45.000Z,27.3
2018-07-23T06:28:45.000Z,27.3
2018-07-23T06:30:30.000Z,27.6
2018-07-23T06:31:45.000Z,27.7
2018-07-23T06:32:45.000Z,27.8
2018-07-23T06:34:30.000Z,27.9
2018-07-23T06:35:45.000Z,27.9
2018-07-23T06:36:45.000Z,27.8
2018-07-23T06:38:45.000Z,27.7
2018-07-23T06:40:45.000Z,27.6
2018-07-23T06:41:46.000Z,27.5
2018-07-23T06:43:46.000Z,27.5
2018-07-23T06:45:46.000Z,27.6
2018-07-23T06:47:46.000Z,27.6
2018-07-23T06:48:46.000Z,27.6
2018-07-23T06:50:46.000Z,27.8
2018-07-23T06:52:46.000Z,28
2018-07-23T06:54:46.000Z,28
2018-07-23T06:55:46.000Z,28
2018-07-23T06:56:46.000Z,28.1
2018-07-23T06:58:30.000Z,28.2
2018-07-23T06:59:46.000Z,28.1
2018-07-23T07:00:46.000Z,28.2
2018-07-23T07:02:46.000Z,28.3
2018-07-23T07:03:46.000Z,28.4
2018-07-23T07:05:46.000Z,28.4
2018-07-23T07:07:46.000Z,28.6
2018-07-23T07:08:46.000Z,28.7
2018-07-23T07:10:46.000Z,28.9
2018-07-23T07:11:46.000Z,29
2018-07-23T07:13:46.000Z,29.1
2018-07-23T07:14:46.000Z,29.2
2018-07-23T07:16:46.000Z,29.3
2018-07-23T07:18:46.000Z,29.4
2018-07-23T07:20:46.000Z,29.3
2018-07-23T07:22:46.000Z,29.2
2018-07-23T07:24:46.000Z,29.1
2018-07-23T07:25:46.000Z,29.1
2018-07-23T07:27:46.000Z,29.2
2018-07-23T07:29:46.000Z,29.1
2018-07-23T07:31:46.000Z,29
2018-07-23T07:32:46.000Z,29.1
2018-07-23T07:34:46.000Z,29.3
2018-07-23T07:35:46.000Z,29.4
2018-07-23T07:37:46.000Z,29.6
2018-07-23T07:38:46.000Z,29.7
2018-07-23T07:40:46.000Z,29.8
2018-07-23T07:41:46.000Z,29.9
2018-07-23T07:43:30.000Z,30.1
2018-07-23T07:44:46.000Z,30.1
2018-07-23T07:46:45.000Z,30.2
2018-07-23T07:48:45.000Z,30.3
2018-07-23T07:50:45.000Z,30.3
2018-07-23T07:51:45.000Z,30.3
2018-07-23T07:53:45.000Z,30.5
2018-07-23T07:55:45.000Z,30.5
2018-07-23T07:57:45.000Z,30.5
2018-07-23T07:58:45.000Z,30.6
2018-07-23T08:00:45.000Z,30.8
2018-07-23T08:01:45.000Z,30.8
2018-07-23T08:03:45.000Z,31
2018-07-23T08:05:45.000Z,30.9
2018-07-23T08:06:45.000Z,30.9
2018-07-23T08:08:30.000Z,30.9
2018-07-23T08:09:45.000Z,31
2018-07-23T08:10:45.000Z,31
2018-07-23T08:11:45.000Z,31.2
2018-07-23T08:13:45.000Z,31.4
2018-07-23T08:15:30.000Z,31.4
2018-07-23T08:16:45.000Z,31.4
2018-07-23T08:18:30.000Z,31.5
2018-07-23T08:19:45.000Z,31.5
2018-07-23T08:20:45.000Z,31.5
2018-07-23T08:22:45.000Z,31.6
2018-07-23T08:24:45.000Z,31.6
2018-07-23T08:26:45.000Z,31.6
2018-07-23T08:27:45.000Z,31.6
2018-07-23T08:28:45.000Z,31.7
2018-07-23T08:30:45.000Z,32
2018-07-23T08:32:45.000Z,32.3
2018-07-23T08:34:45.000Z,32.6
2018-07-23T08:36:45.000Z,33
2018-07-23T08:37:45.000Z,33.1
2018-07-23T08:39:45.000Z,33
2018-07-23T08:41:45.000Z,32.3
2018-07-23T08:42:45.000Z,32
2018-07-23T08:43:45.000Z,31.8
2018-07-23T08:44:45.000Z,31.7
2018-07-23T08:46:45.000Z,31.5
2018-07-23T08:48:45.000Z,31.2
2018-07-23T08:49:45.000Z,31.1
2018-07-23T08:51:45.000Z,31
2018-07-23T08:53:29.000Z,30.8
2018-07-23T08:54:45.000Z,30.7
2018-07-23T08:55:45.000Z,30.6
2018-07-23T08:57:45.000Z,30.4
2018-07-23T08:58:45.000Z,30.3
2018-07-23T08:59:45.000Z,30.3
2018-07-23T09:00:45.000Z,30.3
2018-07-23T09:02:45.000Z,30.3
2018-07-23T09:04:45.000Z,30.3
2018-07-23T09:06:45.000Z,30.4
2018-07-23T09:08:45.000Z,30.5
2018-07-23T09:09:45.000Z,30.5
2018-07-23T09:11:45.000Z,30.5
2018-07-23T09:13:45.000Z,30.4
2018-07-23T09:14:45.000Z,30.4
2018-07-23T09:16:45.000Z,30.2
2018-07-23T09:17:45.000Z,30.1
2018-07-23T09:19:45.000Z,30.1
2018-07-23T09:21:45.000Z,30.1
2018-07-23T09:23:45.000Z,30
2018-07-23T09:24:45.000Z,30
2018-07-23T09:26:45.000Z,30.1
2018-07-23T09:28:45.000Z,30
2018-07-23T09:29:45.000Z,30
2018-07-23T09:31:29.000Z,30
2018-07-23T09:32:45.000Z,29.9
2018-07-23T09:34:45.000Z,29.8
2018-07-23T09:35:45.000Z,29.8
2018-07-23T09:36:45.000Z,29.9
2018-07-23T09:38:45.000Z,30
2018-07-23T09:39:45.000Z,30
2018-07-23T09:41:29.000Z,30.2
2018-07-23T09:42:45.000Z,30.2
2018-07-23T09:44:45.000Z,30.4
2018-07-23T09:46:45.000Z,30.3
2018-07-23T09:48:45.000Z,30.3
2018-07-23T09:50:29.000Z,30.2
2018-07-23T09:51:45.000Z,30.2
2018-07-23T09:53:45.000Z,30.2
2018-07-23T09:54:45.000Z,30.2
2018-07-23T09:56:45.000Z,30.2
2018-07-23T09:58:29.000Z,30.3
2018-07-23T09:59:45.000Z,30.2
2018-07-23T10:01:29.000Z,30.1
2018-07-23T10:02:45.000Z,30.1
2018-07-23T10:03:45.000Z,30.2
2018-07-23T10:04:45.000Z,30.4
2018-07-23T10:06:45.000Z,30.6
2018-07-23T10:07:45.000Z,30.7
2018-07-23T10:09:45.000Z,30.7
2018-07-23T10:11:45.000Z,30.6
2018-07-23T10:12:45.000Z,30.5
2018-07-23T10:13:45.000Z,30.5
2018-07-23T10:15:45.000Z,30.4
2018-07-23T10:16:45.000Z,30.4
2018-07-23T10:18:45.000Z,30.4
2018-07-23T10:20:45.000Z,30.5
2018-07-23T10:22:45.000Z,30.5
2018-07-23T10:24:45.000Z,30.6
2018-07-23T10:25:45.000Z,30.7
2018-07-23T10:27:45.000Z,30.8
2018-07-23T10:28:45.000Z,30.8
2018-07-23T10:30:45.000Z,30.8
2018-07-23T10:32:45.000Z,30.6
2018-07-23T10:33:45.000Z,30.6
2018-07-23T10:34:45.000Z,30.7
2018-07-23T10:36:45.000Z,30.6
2018-07-23T10:38:45.000Z,30.5
2018-07-23T10:40:45.000Z,30.6
2018-07-23T10:42:29.000Z,30.5
2018-07-23T10:43:45.000Z,30.4
2018-07-23T10:45:45.000Z,30.2
2018-07-23T10:47:45.000Z,30
2018-07-23T10:48:45.000Z,30.1
2018-07-23T10:50:45.000Z,30.1
2018-07-23T10:51:45.000Z,30.1
2018-07-23T10:52:45.000Z,30.3
2018-07-23T10:53:45.000Z,30.4
2018-07-23T10:55:29.000Z,30.5
2018-07-23T10:56:45.000Z,30.5
2018-07-23T10:57:45.000Z,30.5
2018-07-23T10:59:45.000Z,30.5
2018-07-23T11:01:45.000Z,30.5
2018-07-23T11:02:45.000Z,30.5
2018-07-23T11:04:45.000Z,30.7
2018-07-23T11:05:45.000Z,30.8
2018-07-23T11:07:30.000Z,31
2018-07-23T11:08:45.000Z,31.1
2018-07-23T11:09:45.000Z,31.2
2018-07-23T11:10:45.000Z,31.3
2018-07-23T11:12:45.000Z,31.5
2018-07-23T11:14:30.000Z,31.5
2018-07-23T11:15:45.000Z,31.6
2018-07-23T11:16:45.000Z,31.6
2018-07-23T11:18:45.000Z,31.8
2018-07-23T11:19:45.000Z,31.8
2018-07-23T11:21:45.000Z,31.9
2018-07-23T11:22:45.000Z,31.9
2018-07-23T11:24:45.000Z,31.9
2018-07-23T11:26:45.000Z,31.9
2018-07-23T11:27:45.000Z,31.9
2018-07-23T11:29:45.000Z,32
2018-07-23T11:31:45.000Z,32
2018-07-23T11:33:45.000Z,32.1
2018-07-23T11:34:45.000Z,32.1
2018-07-23T11:36:30.000Z,32.3
2018-07-23T11:37:45.000Z,32.3
2018-07-23T11:38:45.000Z,32.3
2018-07-23T11:40:45.000Z,32.4
2018-07-23T11:42:45.000Z,32.5
2018-07-23T11:43:45.000Z,32.5
2018-07-23T11:45:30.000Z,32.6
2018-07-23T11:46:45.000Z,32.6
2018-07-23T11:47:45.000Z,32.6
2018-07-23T11:49:45.000Z,32.7
2018-07-23T11:50:45.000Z,32.7
2018-07-23T11:52:45.000Z,32.7
2018-07-23T11:54:45.000Z,32.7
2018-07-23T11:56:45.000Z,32.7
2018-07-23T11:57:45.000Z,32.7
2018-07-23T11:59:30.000Z,32.8
2018-07-23T12:00:45.000Z,32.8
2018-07-23T12:01:45.000Z,32.8
2018-07-23T12:03:45.000Z,32.7
2018-07-23T12:04:45.000Z,32.7
2018-07-23T12:06:45.000Z,32.6
2018-07-23T12:08:45.000Z,32.2
2018-07-23T12:10:30.000Z,32.1
2018-07-23T12:11:45.000Z,32
2018-07-23T12:13:45.000Z,32
2018-07-23T12:15:45.000Z,31.9
2018-07-23T12:17:45.000Z,31.7
2018-07-23T12:19:45.000Z,31.7
2018-07-23T12:20:45.000Z,31.7
2018-07-23T12:22:45.000Z,31.7
2018-07-23T12:23:45.000Z,31.8
2018-07-23T12:25:45.000Z,31.8
2018-07-23T12:26:45.000Z,31.8
2018-07-23T12:28:45.000Z,31.9
2018-07-23T12:29:45.000Z,31.9
2018-07-23T12:31:45.000Z,32.1
2018-07-23T12:33:45.000Z,32.2
2018-07-23T12:34:45.000Z,32.2
2018-07-23T12:35:45.000Z,32.2
2018-07-23T12:37:45.000Z,32
2018-07-23T12:38:45.000Z,32
2018-07-23T12:39:45.000Z,31.8
2018-07-23T12:41:45.000Z,31.6
2018-07-23T12:43:45.000Z,31.5
2018-07-23T12:44:45.000Z,31.4
2018-07-23T12:45:45.000Z,31.4
2018-07-23T12:47:45.000Z,31.4
2018-07-23T12:48:45.000Z,31.4
2018-07-23T12:50:45.000Z,31.4
2018-07-23T12:52:45.000Z,31.3
2018-07-23T12:54:45.000Z,31.3
2018-07-23T12:56:30.000Z,31.4
2018-07-23T12:57:45.000Z,31.4
2018-07-23T12:58:45.000Z,31.4
2018-07-23T13:00:45.000Z,31.5
2018-07-23T13:02:45.000Z,31.5
2018-07-23T13:03:45.000Z,31.5
2018-07-23T13:04:45.000Z,31.5
2018-07-23T13:05:45.000Z,31.6
2018-07-23T13:06:45.000Z,31.8
2018-07-23T13:08:45.000Z,32.1
2018-07-23T13:09:45.000Z,32.2
2018-07-23T13:11:45.000Z,32.5
2018-07-23T13:13:45.000Z,32.5
2018-07-23T13:15:45.000Z,32.5
2018-07-23T13:17:45.000Z,32.5
2018-07-23T13:19:45.000Z,32.4
2018-07-23T13:20:45.000Z,32.4
2018-07-23T13:22:45.000Z,32.5
2018-07-23T13:24:30.000Z,32.5
2018-07-23T13:25:45.000Z,32.5
2018-07-23T13:26:45.000Z,32.6
2018-07-23T13:28:45.000Z,32.7
2018-07-23T13:29:45.000Z,32.7
2018-07-23T13:30:45.000Z,32.8
2018-07-23T13:32:45.000Z,33
2018-07-23T13:33:45.000Z,33
2018-07-23T13:34:45.000Z,33.1
2018-07-23T13:36:45.000Z,33.2
2018-07-23T13:37:45.000Z,33.2
2018-07-23T13:39:45.000Z,33.2
2018-07-23T13:40:45.000Z,33.2
2018-07-23T13:41:45.000Z,33.2
2018-07-23T13:43:30.000Z,33.3
2018-07-23T13:44:45.000Z,33.2
2018-07-23T13:46:45.000Z,33.2
2018-07-23T13:47:45.000Z,33.3
2018-07-23T13:48:45.000Z,33.3
2018-07-23T13:50:45.000Z,33.3
2018-07-23T13:52:45.000Z,33.3
2018-07-23T13:54:45.000Z,33.2
2018-07-23T13:56:45.000Z,33.2
2018-07-23T13:58:45.000Z,33.2
2018-07-23T13:59:45.000Z,33.2
2018-07-23T14:01:45.000Z,33.2
2018-07-23T14:02:45.000Z,33.2
2018-07-23T14:03:45.000Z,33.2
2018-07-23T14:05:30.000Z,33.3
2018-07-23T14:06:45.000Z,33.3
2018-07-23T14:07:45.000Z,33.3
2018-07-23T14:09:45.000Z,33.3
2018-07-23T14:11:45.000Z,33.3
2018-07-23T14:12:45.000Z,33.3
2018-07-23T14:13:45.000Z,33.4
2018-07-23T14:15:45.000Z,33.5
2018-07-23T14:17:45.000Z,33.5
2018-07-23T14:18:45.000Z,33.5
2018-07-23T14:20:45.000Z,33.5
2018-07-23T14:22:30.000Z,33.5
2018-07-23T14:23:45.000Z,33.5
2018-07-23T14:24:45.000Z,33.5
2018-07-23T14:26:45.000Z,33.5
2018-07-23T14:28:45.000Z,33.5
2018-07-23T14:30:45.000Z,33.5
2018-07-23T14:32:30.000Z,33.5
2018-07-23T14:33:45.000Z,33.5
2018-07-23T14:35:45.000Z,33.5
2018-07-23T14:36:45.000Z,33.5
2018-07-23T14:37:45.000Z,33.5
2018-07-23T14:41:31.000Z,33.2
2018-07-23T14:42:31.000Z,33.1
2018-07-23T14:44:31.000Z,33.2
2018-07-23T14:45:31.000Z,33.2
2018-07-23T14:47:31.000Z,33.3
2018-07-23T14:49:31.000Z,33.4
2018-07-23T14:50:31.000Z,33.4
2018-07-23T14:51:31.000Z,33.5
2018-07-23T14:53:31.000Z,33.6
2018-07-23T14:55:31.000Z,33.6
2018-07-23T14:57:31.000Z,33.5
2018-07-23T14:59:31.000Z,33.4
2018-07-23T15:00:31.000Z,33.4
2018-07-23T15:02:31.000Z,33.5
2018-07-23T15:03:31.000Z,33.5
2018-07-23T15:05:31.000Z,33.5
2018-07-23T15:06:31.000Z,33.6
2018-07-23T15:07:31.000Z,33.6
2018-07-23T15:09:31.000Z,33.7
2018-07-23T15:11:31.000Z,33.6
2018-07-23T15:13:31.000Z,33.5
2018-07-23T15:14:31.000Z,33.5
2018-07-23T15:16:31.000Z,33.5
2018-07-23T15:18:31.000Z,33.5
2018-07-23T15:20:31.000Z,33.4
2018-07-23T15:21:31.000Z,33.4
2018-07-23T15:22:31.000Z,33.5
2018-07-23T15:24:31.000Z,33.5
2018-07-23T15:25:31.000Z,33.5
2018-07-23T15:26:31.000Z,33.6
2018-07-23T15:28:31.000Z,33.6
2018-07-23T15:29:31.000Z,33.6
2018-07-23T15:30:31.000Z,33.6
2018-07-23T15:32:31.000Z,33.7
2018-07-23T15:34:31.000Z,33.6
2018-07-23T15:36:31.000Z,33.5
2018-07-23T15:38:31.000Z,33.5
2018-07-23T15:39:31.000Z,33.5
2018-07-23T15:40:31.000Z,33.5
2018-07-23T15:41:31.000Z,33.6
2018-07-23T15:43:31.000Z,33.6
2018-07-23T15:44:31.000Z,33.6
2018-07-23T15:45:31.000Z,33.6
2018-07-23T15:47:15.000Z,33.7
2018-07-23T15:48:31.000Z,33.6
2018-07-23T15:49:31.000Z,33.6
2018-07-23T15:51:31.000Z,33.6
2018-07-23T15:53:31.000Z,33.6
2018-07-23T15:54:31.000Z,33.6
2018-07-23T15:56:15.000Z,33.7
2018-07-23T15:57:31.000Z,33.6
2018-07-23T15:58:31.000Z,33.6
2018-07-23T15:59:31.000Z,33.7
2018-07-23T16:01:15.000Z,33.7
2018-07-23T16:02:31.000Z,33.6
2018-07-23T16:03:31.000Z,33.6
2018-07-23T16:04:31.000Z,33.6
2018-07-23T16:05:31.000Z,33.7
2018-07-23T16:06:31.000Z,33.7
2018-07-23T16:08:31.000Z,33.7
2018-07-23T16:09:31.000Z,33.7
2018-07-23T16:11:31.000Z,33.7
2018-07-23T16:13:16.000Z,33.7
2018-07-23T16:14:31.000Z,33.7
2018-07-23T16:16:31.000Z,33.6
2018-07-23T16:18:31.000Z,33.6
2018-07-23T16:20:31.000Z,33.5
2018-07-23T16:22:31.000Z,33.6
2018-07-23T16:23:31.000Z,33.7
2018-07-23T16:25:31.000Z,33.8
2018-07-23T16:26:31.000Z,33.9
2018-07-23T16:28:31.000Z,34
2018-07-23T16:30:31.000Z,34.1
2018-07-23T16:32:31.000Z,34.1
2018-07-23T16:33:31.000Z,34.1
2018-07-23T16:34:31.000Z,34.1
2018-07-23T16:36:31.000Z,34.2
2018-07-23T16:37:31.000Z,34.2
2018-07-23T16:38:31.000Z,34.2
2018-07-23T16:40:31.000Z,34.3
2018-07-23T16:42:31.000Z,34.3
2018-07-23T16:43:31.000Z,34.3
2018-07-23T16:44:31.000Z,34.3
2018-07-23T16:46:31.000Z,34.2
2018-07-23T16:47:31.000Z,34.2
2018-07-23T16:49:31.000Z,34.2
2018-07-23T16:51:31.000Z,34.2
2018-07-23T16:53:31.000Z,34.2
2018-07-23T16:54:31.000Z,34.2
2018-07-23T16:56:31.000Z,34.2
2018-07-23T16:58:31.000Z,34.1
2018-07-23T17:00:31.000Z,34.1
2018-07-23T17:01:31.000Z,34.1
2018-07-23T17:02:31.000Z,34.2
2018-07-23T17:04:31.000Z,34.2
2018-07-23T17:05:31.000Z,34.2
2018-07-23T17:07:31.000Z,34.3
2018-07-23T17:08:31.000Z,34.3
2018-07-23T17:09:31.000Z,34.3
2018-07-23T17:10:31.000Z,34.3
2018-07-23T17:12:31.000Z,34.3
2018-07-23T17:13:31.000Z,34.3
2018-07-23T17:15:31.000Z,34.3
2018-07-23T17:17:31.000Z,34.2
2018-07-23T17:19:31.000Z,34.2
2018-07-23T17:21:31.000Z,34.1
2018-07-23T17:22:31.000Z,34.1
2018-07-23T17:23:31.000Z,34.1
2018-07-23T17:25:31.000Z,34.1
2018-07-23T17:26:31.000Z,34.1
2018-07-23T17:28:31.000Z,34.2
2018-07-23T17:29:31.000Z,34.2
2018-07-23T17:31:31.000Z,34.2
2018-07-23T17:32:31.000Z,34.2
2018-07-23T17:34:31.000Z,34.2
2018-07-23T17:35:31.000Z,34.2
2018-07-23T17:37:31.000Z,34.2
2018-07-23T17:38:31.000Z,34.2
2018-07-23T17:39:31.000Z,34.3
2018-07-23T17:40:31.000Z,34.3
2018-07-23T17:42:31.000Z,34.3
2018-07-23T17:43:31.000Z,34.3
2018-07-23T17:44:31.000Z,34.3
2018-07-23T17:45:31.000Z,34.3
2018-07-23T17:46:31.000Z,34.3
2018-07-23T17:48:31.000Z,34.3
2018-07-23T17:50:31.000Z,34.3
2018-07-23T17:51:31.000Z,34.3
2018-07-23T17:52:31.000Z,34.2
2018-07-23T17:54:31.000Z,34.2
2018-07-23T17:55:31.000Z,34.2
2018-07-23T17:57:31.000Z,34.2
2018-07-23T17:58:31.000Z,34.2
2018-07-23T17:59:31.000Z,34.2
2018-07-23T18:01:31.000Z,34.2
2018-07-23T18:03:31.000Z,34.2
2018-07-23T18:05:31.000Z,34.1
2018-07-23T18:07:31.000Z,34
2018-07-23T18:08:31.000Z,34
2018-07-23T18:10:31.000Z,34
2018-07-23T18:12:31.000Z,34
2018-07-23T18:13:31.000Z,34
2018-07-23T18:15:31.000Z,34
2018-07-23T18:17:31.000Z,33.8
2018-07-23T18:18:31.000Z,33.8
2018-07-23T18:20:31.000Z,33.8
2018-07-23T18:21:31.000Z,33.8
2018-07-23T18:22:31.000Z,33.8
2018-07-23T18:24:31.000Z,33.8
2018-07-23T18:26:31.000Z,33.8
2018-07-23T18:28:31.000Z,33.8
2018-07-23T18:30:31.000Z,33.8
2018-07-23T18:31:31.000Z,33.8
2018-07-23T18:33:31.000Z,33.8
2018-07-23T18:34:31.000Z,33.8
2018-07-23T18:36:31.000Z,33.8
2018-07-23T18:37:31.000Z,33.8
2018-07-23T18:39:31.000Z,33.8
2018-07-23T18:41:16.000Z,33.7
2018-07-23T18:42:31.000Z,33.7
2018-07-23T18:43:31.000Z,33.7
2018-07-23T18:45:31.000Z,33.8
2018-07-23T18:46:31.000Z,33.8
2018-07-23T18:48:31.000Z,33.8
2018-07-23T18:50:31.000Z,33.8
2018-07-23T18:52:16.000Z,33.8
2018-07-23T18:53:31.000Z,33.7
2018-07-23T18:55:31.000Z,33.7
2018-07-23T18:56:31.000Z,33.7
2018-07-23T18:58:31.000Z,33.7
2018-07-23T19:00:31.000Z,33.7
2018-07-23T19:02:31.000Z,33.7
2018-07-23T19:03:31.000Z,33.7
2018-07-23T19:05:31.000Z,33.7
2018-07-23T19:07:31.000Z,33.7
2018-07-23T19:08:31.000Z,33.7
2018-07-23T19:10:31.000Z,33.7
2018-07-23T19:12:31.000Z,33.6
2018-07-23T19:14:31.000Z,33.6
2018-07-23T19:16:31.000Z,33.6
2018-07-23T19:17:31.000Z,33.6
2018-07-23T19:19:31.000Z,33.7
2018-07-23T19:21:31.000Z,33.7
2018-07-23T19:23:16.000Z,33.6
2018-07-23T19:24:31.000Z,33.6
2018-07-23T19:26:31.000Z,33.6
2018-07-23T19:28:31.000Z,33.6
2018-07-23T19:30:31.000Z,33.5
2018-07-23T19:32:16.000Z,33.5
2018-07-23T19:33:31.000Z,33.4
2018-07-23T19:34:31.000Z,33.4
2018-07-23T19:36:31.000Z,33.5
2018-07-23T19:37:31.000Z,33.5
2018-07-23T19:38:31.000Z,33.6
2018-07-23T19:40:31.000Z,33.6
2018-07-23T19:41:31.000Z,33.6
2018-07-23T19:43:31.000Z,33.6
2018-07-23T19:44:31.000Z,33.7
2018-07-23T19:45:31.000Z,33.7
2018-07-23T19:47:31.000Z,33.7
2018-07-23T19:49:16.000Z,33.7
2018-07-23T19:50:31.000Z,33.7
2018-07-23T19:52:31.000Z,33.6
2018-07-23T19:53:31.000Z,33.6
2018-07-23T19:55:31.000Z,33.6
2018-07-23T19:57:31.000Z,33.6
2018-07-23T19:58:31.000Z,33.6
2018-07-23T20:00:16.000Z,33.7
2018-07-23T20:01:31.000Z,33.6
2018-07-23T20:02:31.000Z,33.6
2018-07-23T20:04:31.000Z,33.6
2018-07-23T20:05:31.000Z,33.6
2018-07-23T20:07:31.000Z,33.6
2018-07-23T20:09:31.000Z,33.6
2018-07-23T20:11:31.000Z,33.5
2018-07-23T20:13:31.000Z,33.5
2018-07-23T20:14:31.000Z,33.5
2018-07-23T20:15:31.000Z,33.6
2018-07-23T20:16:31.000Z,33.6
2018-07-23T20:18:31.000Z,33.6
2018-07-23T20:19:31.000Z,33.6
2018-07-23T20:21:31.000Z,33.6
2018-07-23T20:23:31.000Z,33.6
2018-07-23T20:24:31.000Z,33.6
2018-07-23T20:25:31.000Z,33.6
2018-07-23T20:27:31.000Z,33.6
2018-07-23T20:28:31.000Z,33.6
2018-07-23T20:29:31.000Z,33.6
2018-07-23T20:31:31.000Z,33.7
2018-07-23T20:32:31.000Z,33.7
2018-07-23T20:33:31.000Z,33.7
2018-07-23T20:35:31.000Z,33.7
2018-07-23T20:37:31.000Z,33.7
2018-07-23T20:39:16.000Z,33.6
2018-07-23T20:40:31.000Z,33.6
2018-07-23T20:41:31.000Z,33.6